This is the latest recevied weather packets stored in our database for station/object KC8QDR-1. If no packets are shown the sender has not sent any weather packets the latest 10 day(s).
| Time | Temp. | Humidity | Pressure | Rain* | Wind** | Luminosity | Snow |
|---|---|---|---|---|---|---|---|
| 1777063128 | 23.33° C | 54% | 1019.6 hPa | 0 mm | 0.89 m/s, 176° | - | - |
| 1777062530 | 24.44° C | 54% | 1019.8 hPa | 0 mm | 1.79 m/s, 190° | - | - |
| 1777061327 | 25° C | 49% | 1019.6 hPa | 0 mm | 2.24 m/s, 167° | - | - |
| 1777060728 | 23.89° C | 54% | 1019.7 hPa | 0 mm | 0.89 m/s, 187° | - | - |
| 1777060126 | 22.22° C | 57% | 1019.7 hPa | 0 mm | 0.89 m/s, 172° | - | - |
| 1777059528 | 23.33° C | 56% | 1020.1 hPa | 0 mm | 0.45 m/s, 245° | - | - |
| 1777058924 | 25° C | 47% | 1020 hPa | 0 mm | 1.34 m/s, 282° | - | - |
| 1777058325 | 26.67° C | 41% | 1020 hPa | 0 mm | 0.89 m/s, 248° | - | - |
| 1777057724 | 27.22° C | 42% | 1019.9 hPa | 0 mm | 0 m/s | - | - |
| 1777057128 | 27.22° C | 44% | 1020 hPa | 0 mm | 1.79 m/s, 218° | - | - |
| 1777056529 | 26.67° C | 48% | 1020 hPa | 0 mm | 1.34 m/s, 9° | - | - |
| 1777055926 | 26.11° C | 45% | 1020 hPa | 0 mm | 0.89 m/s, 275° | - | - |
| 1777055326 | 26.67° C | 44% | 1019.8 hPa | 0 mm | 0.89 m/s, 206° | - | - |
| 1777054726 | 27.22° C | 45% | 1019.8 hPa | 0 mm | 2.68 m/s, 183° | - | - |
| 1777054127 | 27.22° C | 41% | 1019.6 hPa | 0 mm | 0 m/s | - | - |
| 1777053526 | 26.67° C | 41% | 1019.5 hPa | 0 mm | 0.89 m/s, 83° | - | - |
| 1777052924 | 26.67° C | 40% | 1019.4 hPa | 0 mm | 1.34 m/s, 182° | - | - |
| 1777052327 | 26.67° C | 40% | 1019.3 hPa | 0 mm | 3.13 m/s, 201° | - | - |
| 1777051727 | 26.67° C | 40% | 1019.3 hPa | 0 mm | 3.13 m/s, 275° | - | - |
| 1777051124 | 26.11° C | 44% | 1019.2 hPa | 0 mm | 2.68 m/s, 238° | - | - |
| 1777050524 | 25.56° C | 44% | 1019.1 hPa | 0 mm | 2.24 m/s, 160° | - | - |
| 1777049926 | 26.11° C | 43% | 1019.2 hPa | 0 mm | 1.79 m/s, 215° | - | - |
| 1777049327 | 25.56° C | 43% | 1019.2 hPa | 0 mm | 0.89 m/s, 266° | - | - |
| 1777048727 | 25° C | 49% | 1019.3 hPa | 0 mm | 0.89 m/s, 134° | - | - |
| 1777048127 | 25.56° C | 42% | 1019.3 hPa | 0 mm | 0 m/s | - | - |
* Rain latest hour (hover to see other rain measurements)
** Current wind speed in m/s (hover to see current wind gust speed)